Futtsu Maru — JD3477 — position and weather

sailwx.info

Track history (hours):
 
Tides and Currents Weather Stations Pressure Air Temp Water Temp Dewpoint Dewpoint Depression Visibility Wind Speed Wind Dir Waves Ship Positions

Futtsu Maru

Last reported at 2018-Jul-22 01:44 UTC. Time now 2018-Jul-22 14:27 UTC.
Position N 35°22' E 139°54'.

Length 43 m; draft 3.8 m.

Type: Tug. MMSI: 431004371.

Date/timePositionNaut miles runAvg speedWind from/ knotsBaromVisibWave heightAir tempDewpointWater temp
2018-Jul-22 01:44N 35°22' E 139°54'210.2
2018-Jul-22 01:30N 35°23' E 139°51'3 5.2
2018-Jul-22 01:00N 35°21' E 139°49'0 0.3
2018-Jul-22 00:30N 35°21' E 139°49'2 3.2
2018-Jul-22 00:00N 35°22' E 139°50'3 2.1
2018-Jul-21 22:24N 35°22' E 139°54'0 0.0
2018-Jul-21 19:56N 35°22' E 139°54'2 3.7
2018-Jul-21 19:30N 35°22' E 139°52'0 0.1
2018-Jul-21 19:00N 35°22' E 139°52'0 0.8
2018-Jul-21 18:30N 35°22' E 139°52'2 4.9
2018-Jul-21 18:00N 35°24' E 139°49'3 5.5
2018-Jul-21 17:30N 35°26' E 139°50'2 3.4
2018-Jul-21 16:59N 35°25' E 139°51'3 6.2
2018-Jul-21 16:30N 35°22' E 139°52'0 0.4
2018-Jul-21 15:59N 35°22' E 139°52'2 3.5
2018-Jul-21 15:30N 35°22' E 139°54'0 0.0
2018-Jul-21 05:50N 35°22' E 139°54'3 9.5
2018-Jul-21 05:30N 35°22' E 139°50'2 3.0
2018-Jul-21 05:00N 35°20' E 139°49'0 0.1
2018-Jul-21 04:30N 35°20' E 139°49'0 0.8
2018-Jul-21 04:00N 35°21' E 139°49'2 4.3
2018-Jul-21 03:31N 35°23' E 139°48'0 0.0
2018-Jul-21 03:00N 35°23' E 139°48'1 2.5
2018-Jul-21 02:30N 35°22' E 139°49'1 2.0
2018-Jul-21 02:00N 35°21' E 139°49'0 0.1
2018-Jul-21 01:30N 35°21' E 139°49'0 0.0
2018-Jul-21 01:00N 35°21' E 139°49'1 2.6
2018-Jul-21 00:29N 35°22' E 139°49'2 4.1
2018-Jul-21 00:00N 35°23' E 139°47'1 2.4
2018-Jul-20 23:30N 35°22' E 139°46'4 7.1
2018-Jul-20 23:00N 35°23' E 139°50'3 0.1
2018-Jul-19 21:54N 35°22' E 139°54'1 1.3
2018-Jul-19 21:30N 35°22' E 139°53'1 1.0
2018-Jul-19 20:58N 35°22' E 139°54'0 0.0
2018-Jul-19 19:54N 35°22' E 139°54'0 0.0
2018-Jul-19 16:34N 35°22' E 139°54'0 0.0
2018-Jul-19 16:18N 35°22' E 139°54'2 5.2
2018-Jul-19 16:00N 35°22' E 139°52'0 0.1
2018-Jul-19 15:30N 35°22' E 139°52'0 0.8
2018-Jul-19 14:59N 35°22' E 139°52'2 4.1
2018-Jul-19 14:30N 35°23' E 139°49'2 2.4
2018-Jul-19 13:30N 35°26' E 139°49'3 6.4
2018-Jul-19 13:01N 35°23' E 139°51'3 5.0
2018-Jul-19 12:30N 35°21' E 139°54'0 0.0
2018-Jul-19 12:00N 35°21' E 139°54'0 0.0
2018-Jul-19 11:29N 35°21' E 139°54'0 0.0
2018-Jul-19 11:00N 35°21' E 139°54'0 0.0
2018-Jul-19 10:29N 35°21' E 139°54'0 0.0
2018-Jul-19 10:00N 35°21' E 139°54'0 0.0
2018-Jul-19 09:25N 35°21' E 139°54'0 0.0
2018-Jul-19 09:00N 35°21' E 139°54'2 4.0
2018-Jul-19 08:30N 35°22' E 139°52'1 2.1
2018-Jul-19 08:00N 35°21' E 139°51'0 0.3
2018-Jul-19 07:30N 35°22' E 139°51'1 2.5
2018-Jul-19 07:00N 35°22' E 139°50'0 0.3
2018-Jul-19 06:30N 35°22' E 139°50'1 2.4
2018-Jul-19 06:00N 35°22' E 139°51'1 2.4
2018-Jul-19 05:31N 35°23' E 139°50'3 5.8
2018-Jul-19 04:59N 35°22' E 139°54'0 0.0
2018-Jul-19 04:22N 35°22' E 139°54'0 0.0
2018-Jul-19 03:52N 35°22' E 139°54'0 0.0
2018-Jul-19 03:30N 35°22' E 139°54'0 0.0
2018-Jul-19 00:11N 35°22' E 139°54'2 9.3
2018-Jul-19 00:00N 35°22' E 139°52'0 0.7
2018-Jul-18 23:30N 35°22' E 139°52'1 0.5
2018-Jul-18 20:59N 35°22' E 139°54'0 0.0
2018-Jul-18 09:29N 35°22' E 139°54'611.7
2018-Jul-18 09:00N 35°23' E 139°47'713.2
2018-Jul-18 08:30N 35°24' E 139°39'1 1.9
2018-Jul-18 08:00N 35°23' E 139°38'0 0.9
2018-Jul-18 07:31N 35°24' E 139°38'0 0.4
2018-Jul-18 07:00N 35°24' E 139°38'1 2.6
2018-Jul-18 06:30N 35°23' E 139°39'612.2
2018-Jul-18 06:00N 35°23' E 139°47'6 1.3
2018-Jul-18 01:33N 35°22' E 139°54'0 9.6
2018-Jul-18 01:30N 35°22' E 139°53'2 4.2
2018-Jul-18 01:00N 35°22' E 139°51'0 0.7
2018-Jul-18 00:30N 35°22' E 139°50'1 1.0
2018-Jul-18 00:00N 35°22' E 139°50'0 0.0
2018-Jul-17 23:31N 35°22' E 139°50'0 0.7
2018-Jul-17 23:01N 35°22' E 139°50'1 1.2
2018-Jul-17 22:30N 35°22' E 139°51'1 2.2
2018-Jul-17 22:00N 35°22' E 139°52'0 0.5
2018-Jul-17 21:30N 35°22' E 139°52'0 0.7
2018-Jul-17 21:00N 35°22' E 139°52'2 3.8
2018-Jul-17 20:30N 35°23' E 139°50'2 4.6
2018-Jul-17 20:00N 35°25' E 139°49'2 4.0
2018-Jul-17 19:30N 35°26' E 139°50'4 7.6
2018-Jul-17 19:00N 35°23' E 139°51'2 0.1
2018-Jul-17 01:01N 35°22' E 139°54'0 8.0
2018-Jul-17 01:00N 35°22' E 139°54'4 7.7
2018-Jul-17 00:30N 35°21' E 139°49'0 0.1
2018-Jul-16 23:30N 35°21' E 139°49'0 0.1
2018-Jul-16 23:00N 35°20' E 139°49'0 0.2
2018-Jul-16 22:30N 35°20' E 139°49'0 0.2
2018-Jul-16 22:00N 35°20' E 139°49'0 0.2
2018-Jul-16 21:30N 35°21' E 139°49'0 0.3
2018-Jul-16 21:00N 35°21' E 139°49'0 0.6
2018-Jul-16 20:30N 35°20' E 139°49'0 0.1
2018-Jul-16 20:00N 35°20' E 139°49'0 0.6
2018-Jul-16 19:30N 35°20' E 139°49'0 0.1
2018-Jul-16 19:00N 35°20' E 139°49'0 0.1
2018-Jul-16 18:30N 35°20' E 139°49'0 0.0
2018-Jul-16 18:00N 35°20' E 139°49'0 0.1
2018-Jul-16 17:30N 35°20' E 139°49'0 0.1
2018-Jul-16 17:00N 35°20' E 139°49'0 0.0
2018-Jul-16 16:30N 35°20' E 139°49'0 0.0
2018-Jul-16 16:00N 35°20' E 139°49'0 0.0
2018-Jul-16 15:30N 35°20' E 139°49'0 0.0
2018-Jul-16 15:00N 35°20' E 139°49'0 0.0
2018-Jul-16 14:30N 35°20' E 139°49'0 0.0
2018-Jul-16 14:00N 35°20' E 139°49'0 0.0
2018-Jul-16 13:30N 35°20' E 139°49'0 0.1
2018-Jul-16 13:00N 35°20' E 139°49'0 0.6
2018-Jul-16 12:30N 35°21' E 139°49'0 0.7
2018-Jul-16 12:00N 35°20' E 139°49'0 0.5
2018-Jul-16 11:30N 35°20' E 139°49'0 0.1
2018-Jul-16 11:00N 35°20' E 139°49'0 0.5
2018-Jul-16 10:31N 35°20' E 139°49'0 0.5
2018-Jul-16 10:01N 35°21' E 139°49'0 0.3
2018-Jul-16 09:30N 35°20' E 139°49'0 0.6
2018-Jul-16 09:00N 35°21' E 139°49'0 0.3
2018-Jul-16 08:30N 35°21' E 139°49'0 0.4
2018-Jul-16 08:00N 35°20' E 139°49'0 0.2
2018-Jul-16 07:31N 35°20' E 139°49'0 0.4
2018-Jul-16 07:00N 35°21' E 139°49'0 0.6
2018-Jul-16 06:30N 35°20' E 139°49'0 0.2
2018-Jul-16 06:00N 35°20' E 139°49'0 0.3
2018-Jul-16 05:30N 35°21' E 139°49'0 0.1
2018-Jul-16 05:01N 35°21' E 139°49'0 0.4
2018-Jul-16 04:30N 35°20' E 139°49'0 0.0
2018-Jul-16 04:00N 35°20' E 139°49'0 0.4
2018-Jul-16 03:30N 35°20' E 139°49'1 2.7
2018-Jul-16 03:01N 35°22' E 139°49'2 4.1
2018-Jul-16 02:30N 35°23' E 139°51'3 5.2
2018-Jul-16 01:59N 35°21' E 139°54'0 0.0
2018-Jul-16 01:30N 35°21' E 139°54'0 0.0
2018-Jul-16 01:00N 35°21' E 139°54'0 0.0
2018-Jul-16 00:30N 35°21' E 139°54'0 0.0
2018-Jul-15 23:59N 35°21' E 139°54'0 0.0
2018-Jul-15 23:30N 35°21' E 139°54'0 0.0
2018-Jul-15 23:00N 35°21' E 139°54'0 0.0
2018-Jul-15 22:18N 35°21' E 139°54'0 0.0
2018-Jul-15 21:07N 35°21' E 139°54'0 0.0
2018-Jul-15 19:22N 35°21' E 139°54'0 0.0
2018-Jul-15 18:49N 35°21' E 139°54'0 0.0
2018-Jul-15 18:30N 35°21' E 139°54'0 0.0
2018-Jul-15 17:56N 35°21' E 139°54'0 0.0
2018-Jul-15 17:30N 35°21' E 139°54'0 0.0
2018-Jul-15 16:54N 35°21' E 139°54'0 0.0
2018-Jul-15 16:29N 35°21' E 139°54'0 0.0
2018-Jul-15 16:00N 35°21' E 139°54'0 0.0
2018-Jul-15 15:29N 35°21' E 139°54'0 0.0
2018-Jul-15 15:00N 35°21' E 139°54'0 0.0
2018-Jul-15 14:25N 35°21' E 139°54'0 0.0
2018-Jul-15 13:45N 35°21' E 139°54'0 0.0
2018-Jul-15 13:29N 35°21' E 139°54'0 0.0
2018-Jul-15 09:08N 35°21' E 139°54'1 5.7
2018-Jul-15 09:00N 35°22' E 139°53'2 3.7
2018-Jul-15 08:30N 35°21' E 139°51'0 0.9
2018-Jul-15 08:00N 35°22' E 139°51'3 5.3
2018-Jul-15 07:30N 35°24' E 139°49'3 6.0
2018-Jul-15 07:00N 35°21' E 139°51'0 0.3
2018-Jul-15 06:30N 35°21' E 139°51'1 2.5
2018-Jul-15 06:00N 35°22' E 139°50'0 0.0
2018-Jul-15 05:30N 35°22' E 139°50'0 0.0
2018-Jul-15 05:00N 35°22' E 139°50'0 0.0
2018-Jul-15 04:30N 35°22' E 139°50'0 0.0
2018-Jul-15 04:00N 35°22' E 139°50'1 2.4
2018-Jul-15 03:30N 35°21' E 139°49'0 0.1
2018-Jul-15 03:00N 35°21' E 139°49'1 2.7
2018-Jul-15 02:30N 35°22' E 139°50'4 1.0
2018-Jul-14 23:07N 35°22' E 139°54'1 7.8
2018-Jul-14 23:00N 35°22' E 139°53'1 2.0
2018-Jul-14 22:30N 35°22' E 139°52'0 0.5
2018-Jul-14 22:00N 35°22' E 139°52'2 3.7
2018-Jul-14 21:30N 35°23' E 139°50'2 4.8
2018-Jul-14 21:00N 35°25' E 139°48'1 1.1
2018-Jul-14 20:29N 35°26' E 139°49'4 8.6
2018-Jul-14 20:00N 35°22' E 139°52'0 0.6
2018-Jul-14 19:30N 35°22' E 139°52'1 0.1
2018-Jul-14 08:02N 35°22' E 139°54'0 9.2
2018-Jul-14 07:59N 35°22' E 139°53'1 1.1
2018-Jul-14 07:30N 35°22' E 139°53'0 0.4
2018-Jul-14 07:00N 35°22' E 139°53'1 1.3
2018-Jul-14 06:27N 35°22' E 139°53'0 0.0
2018-Jul-14 06:00N 35°22' E 139°53'0 0.0
2018-Jul-14 05:30N 35°22' E 139°53'0 0.0
2018-Jul-14 05:00N 35°22' E 139°53'1 1.9
2018-Jul-14 04:28N 35°22' E 139°52'2 5.4
2018-Jul-14 04:00N 35°21' E 139°49'0 0.0
2018-Jul-14 03:30N 35°21' E 139°49'0 0.2
2018-Jul-14 03:00N 35°21' E 139°49'2 3.2
2018-Jul-14 02:30N 35°22' E 139°48'1 1.4
2018-Jul-14 02:00N 35°23' E 139°48'0 0.1
2018-Jul-14 01:30N 35°23' E 139°48'4 4.6
2018-Jul-14 00:44N 35°22' E 139°53'0 0.0
2018-Jul-14 00:30N 35°22' E 139°53'0 0.0
2018-Jul-14 00:00N 35°22' E 139°53'0 0.6
2018-Jul-13 23:30N 35°22' E 139°53'0 0.6
2018-Jul-13 23:01N 35°22' E 139°53'2 4.8
2018-Jul-13 22:30N 35°23' E 139°50'1 2.9
2018-Jul-13 22:01N 35°24' E 139°49'2 4.4
2018-Jul-13 21:30N 35°23' E 139°51'3 4.4
2018-Jul-13 20:55N 35°22' E 139°54'0 0.0
2018-Jul-13 20:30N 35°22' E 139°54'0 0.0
2018-Jul-13 13:54N 35°22' E 139°54'0 0.0
2018-Jul-13 10:51N 35°22' E 139°54'0 0.1
2018-Jul-13 09:32N 35°22' E 139°54'0 8.7
2018-Jul-13 09:30N 35°22' E 139°54'2 4.0
2018-Jul-13 09:01N 35°21' E 139°51'0 0.7
2018-Jul-13 08:30N 35°21' E 139°51'2 4.9
2018-Jul-13 08:00N 35°23' E 139°49'2 3.6
2018-Jul-13 07:30N 35°25' E 139°50'4 7.0
2018-Jul-13 07:00N 35°22' E 139°53'0 0.2
2018-Jul-13 06:30N 35°22' E 139°53'0 0.0
2018-Jul-13 06:00N 35°22' E 139°53'0 0.0
2018-Jul-13 05:28N 35°22' E 139°53'0 0.1
2018-Jul-13 05:00N 35°22' E 139°53'0 0.1
2018-Jul-13 04:30N 35°22' E 139°53'0 0.1
2018-Jul-13 03:59N 35°22' E 139°53'0 0.0
2018-Jul-13 03:30N 35°22' E 139°53'0 0.0
2018-Jul-13 03:00N 35°22' E 139°53'0 0.1
2018-Jul-13 02:30N 35°22' E 139°53'3 6.4
2018-Jul-13 02:01N 35°21' E 139°49'2 3.7
2018-Jul-13 01:30N 35°21' E 139°51'0 0.0
2018-Jul-13 01:00N 35°21' E 139°51'1 2.2
2018-Jul-13 00:30N 35°22' E 139°50'0 0.0
2018-Jul-13 00:00N 35°22' E 139°50'0 0.0
2018-Jul-12 23:30N 35°22' E 139°50'0 0.0
2018-Jul-12 23:00N 35°22' E 139°50'0 0.0
2018-Jul-12 22:30N 35°22' E 139°50'1 1.6
2018-Jul-12 22:01N 35°22' E 139°51'0 0.5
2018-Jul-12 21:30N 35°22' E 139°51'0 0.1
2018-Jul-12 21:00N 35°22' E 139°51'1 1.4
2018-Jul-12 20:30N 35°22' E 139°50'3 0.2
2018-Jul-12 04:57N 35°22' E 139°54'3 7.3
2018-Jul-12 04:31N 35°22' E 139°50'0 0.7
2018-Jul-12 04:00N 35°22' E 139°50'1 2.2
2018-Jul-12 03:30N 35°21' E 139°49'0 0.0
2018-Jul-12 03:00N 35°21' E 139°49'0 0.1
2018-Jul-12 02:30N 35°21' E 139°49'2 3.0
2018-Jul-12 02:00N 35°22' E 139°48'  
Track history (hours):
 
Tides and Currents Weather Stations Pressure Air Temp Water Temp Dewpoint Dewpoint Depression Visibility Wind Speed Wind Dir Waves Ship Positions

Futtsu Maru

Last reported at 2018-Jul-22 01:44 UTC. Time now 2018-Jul-22 14:27 UTC.
Position N 35°22' E 139°54'.

Length 43 m; draft 3.8 m.

Type: Tug. MMSI: 431004371.

Date/timePositionNaut miles runAvg speedWind from/ knotsBaromVisibWave heightAir tempDewpointWater temp
2018-Jul-22 01:44N 35°22' E 139°54'210.2
2018-Jul-22 01:30N 35°23' E 139°51'3 5.2
2018-Jul-22 01:00N 35°21' E 139°49'0 0.3
2018-Jul-22 00:30N 35°21' E 139°49'2 3.2
2018-Jul-22 00:00N 35°22' E 139°50'3 2.1
2018-Jul-21 22:24N 35°22' E 139°54'0 0.0
2018-Jul-21 19:56N 35°22' E 139°54'2 3.7
2018-Jul-21 19:30N 35°22' E 139°52'0 0.1
2018-Jul-21 19:00N 35°22' E 139°52'0 0.8
2018-Jul-21 18:30N 35°22' E 139°52'2 4.9
2018-Jul-21 18:00N 35°24' E 139°49'3 5.5
2018-Jul-21 17:30N 35°26' E 139°50'2 3.4
2018-Jul-21 16:59N 35°25' E 139°51'3 6.2
2018-Jul-21 16:30N 35°22' E 139°52'0 0.4
2018-Jul-21 15:59N 35°22' E 139°52'2 3.5
2018-Jul-21 15:30N 35°22' E 139°54'0 0.0
2018-Jul-21 05:50N 35°22' E 139°54'3 9.5
2018-Jul-21 05:30N 35°22' E 139°50'2 3.0
2018-Jul-21 05:00N 35°20' E 139°49'0 0.1
2018-Jul-21 04:30N 35°20' E 139°49'0 0.8
2018-Jul-21 04:00N 35°21' E 139°49'2 4.3
2018-Jul-21 03:31N 35°23' E 139°48'0 0.0
2018-Jul-21 03:00N 35°23' E 139°48'1 2.5
2018-Jul-21 02:30N 35°22' E 139°49'1 2.0
2018-Jul-21 02:00N 35°21' E 139°49'0 0.1
2018-Jul-21 01:30N 35°21' E 139°49'0 0.0
2018-Jul-21 01:00N 35°21' E 139°49'1 2.6
2018-Jul-21 00:29N 35°22' E 139°49'2 4.1
2018-Jul-21 00:00N 35°23' E 139°47'1 2.4
2018-Jul-20 23:30N 35°22' E 139°46'4 7.1
2018-Jul-20 23:00N 35°23' E 139°50'3 0.1
2018-Jul-19 21:54N 35°22' E 139°54'1 1.3
2018-Jul-19 21:30N 35°22' E 139°53'1 1.0
2018-Jul-19 20:58N 35°22' E 139°54'0 0.0
2018-Jul-19 19:54N 35°22' E 139°54'0 0.0
2018-Jul-19 16:34N 35°22' E 139°54'0 0.0
2018-Jul-19 16:18N 35°22' E 139°54'2 5.2
2018-Jul-19 16:00N 35°22' E 139°52'0 0.1
2018-Jul-19 15:30N 35°22' E 139°52'0 0.8
2018-Jul-19 14:59N 35°22' E 139°52'2 4.1
2018-Jul-19 14:30N 35°23' E 139°49'2 2.4
2018-Jul-19 13:30N 35°26' E 139°49'3 6.4
2018-Jul-19 13:01N 35°23' E 139°51'3 5.0
2018-Jul-19 12:30N 35°21' E 139°54'0 0.0
2018-Jul-19 12:00N 35°21' E 139°54'0 0.0
2018-Jul-19 11:29N 35°21' E 139°54'0 0.0
2018-Jul-19 11:00N 35°21' E 139°54'0 0.0
2018-Jul-19 10:29N 35°21' E 139°54'0 0.0
2018-Jul-19 10:00N 35°21' E 139°54'0 0.0
2018-Jul-19 09:25N 35°21' E 139°54'0 0.0
2018-Jul-19 09:00N 35°21' E 139°54'2 4.0
2018-Jul-19 08:30N 35°22' E 139°52'1 2.1
2018-Jul-19 08:00N 35°21' E 139°51'0 0.3
2018-Jul-19 07:30N 35°22' E 139°51'1 2.5
2018-Jul-19 07:00N 35°22' E 139°50'0 0.3
2018-Jul-19 06:30N 35°22' E 139°50'1 2.4
2018-Jul-19 06:00N 35°22' E 139°51'1 2.4
2018-Jul-19 05:31N 35°23' E 139°50'3 5.8
2018-Jul-19 04:59N 35°22' E 139°54'0 0.0
2018-Jul-19 04:22N 35°22' E 139°54'0 0.0
2018-Jul-19 03:52N 35°22' E 139°54'0 0.0
2018-Jul-19 03:30N 35°22' E 139°54'0 0.0
2018-Jul-19 00:11N 35°22' E 139°54'2 9.3
2018-Jul-19 00:00N 35°22' E 139°52'0 0.7
2018-Jul-18 23:30N 35°22' E 139°52'1 0.5
2018-Jul-18 20:59N 35°22' E 139°54'0 0.0
2018-Jul-18 09:29N 35°22' E 139°54'611.7
2018-Jul-18 09:00N 35°23' E 139°47'713.2
2018-Jul-18 08:30N 35°24' E 139°39'1 1.9
2018-Jul-18 08:00N 35°23' E 139°38'0 0.9
2018-Jul-18 07:31N 35°24' E 139°38'0 0.4
2018-Jul-18 07:00N 35°24' E 139°38'1 2.6
2018-Jul-18 06:30N 35°23' E 139°39'612.2
2018-Jul-18 06:00N 35°23' E 139°47'6 1.3
2018-Jul-18 01:33N 35°22' E 139°54'0 9.6
2018-Jul-18 01:30N 35°22' E 139°53'2 4.2
2018-Jul-18 01:00N 35°22' E 139°51'0 0.7
2018-Jul-18 00:30N 35°22' E 139°50'1 1.0
2018-Jul-18 00:00N 35°22' E 139°50'0 0.0
2018-Jul-17 23:31N 35°22' E 139°50'0 0.7
2018-Jul-17 23:01N 35°22' E 139°50'1 1.2
2018-Jul-17 22:30N 35°22' E 139°51'1 2.2
2018-Jul-17 22:00N 35°22' E 139°52'0 0.5
2018-Jul-17 21:30N 35°22' E 139°52'0 0.7
2018-Jul-17 21:00N 35°22' E 139°52'2 3.8
2018-Jul-17 20:30N 35°23' E 139°50'2 4.6
2018-Jul-17 20:00N 35°25' E 139°49'2 4.0
2018-Jul-17 19:30N 35°26' E 139°50'4 7.6
2018-Jul-17 19:00N 35°23' E 139°51'2 0.1
2018-Jul-17 01:01N 35°22' E 139°54'0 8.0
2018-Jul-17 01:00N 35°22' E 139°54'4 7.7
2018-Jul-17 00:30N 35°21' E 139°49'0 0.1
2018-Jul-16 23:30N 35°21' E 139°49'0 0.1
2018-Jul-16 23:00N 35°20' E 139°49'0 0.2
2018-Jul-16 22:30N 35°20' E 139°49'0 0.2
2018-Jul-16 22:00N 35°20' E 139°49'0 0.2
2018-Jul-16 21:30N 35°21' E 139°49'0 0.3
2018-Jul-16 21:00N 35°21' E 139°49'0 0.6
2018-Jul-16 20:30N 35°20' E 139°49'0 0.1
2018-Jul-16 20:00N 35°20' E 139°49'0 0.6
2018-Jul-16 19:30N 35°20' E 139°49'0 0.1
2018-Jul-16 19:00N 35°20' E 139°49'0 0.1
2018-Jul-16 18:30N 35°20' E 139°49'0 0.0
2018-Jul-16 18:00N 35°20' E 139°49'0 0.1
2018-Jul-16 17:30N 35°20' E 139°49'0 0.1
2018-Jul-16 17:00N 35°20' E 139°49'0 0.0
2018-Jul-16 16:30N 35°20' E 139°49'0 0.0
2018-Jul-16 16:00N 35°20' E 139°49'0 0.0
2018-Jul-16 15:30N 35°20' E 139°49'0 0.0
2018-Jul-16 15:00N 35°20' E 139°49'0 0.0
2018-Jul-16 14:30N 35°20' E 139°49'0 0.0
2018-Jul-16 14:00N 35°20' E 139°49'0 0.0
2018-Jul-16 13:30N 35°20' E 139°49'0 0.1
2018-Jul-16 13:00N 35°20' E 139°49'0 0.6
2018-Jul-16 12:30N 35°21' E 139°49'0 0.7
2018-Jul-16 12:00N 35°20' E 139°49'0 0.5
2018-Jul-16 11:30N 35°20' E 139°49'0 0.1
2018-Jul-16 11:00N 35°20' E 139°49'0 0.5
2018-Jul-16 10:31N 35°20' E 139°49'0 0.5
2018-Jul-16 10:01N 35°21' E 139°49'0 0.3
2018-Jul-16 09:30N 35°20' E 139°49'0 0.6
2018-Jul-16 09:00N 35°21' E 139°49'0 0.3
2018-Jul-16 08:30N 35°21' E 139°49'0 0.4
2018-Jul-16 08:00N 35°20' E 139°49'0 0.2
2018-Jul-16 07:31N 35°20' E 139°49'0 0.4
2018-Jul-16 07:00N 35°21' E 139°49'0 0.6
2018-Jul-16 06:30N 35°20' E 139°49'0 0.2
2018-Jul-16 06:00N 35°20' E 139°49'0 0.3
2018-Jul-16 05:30N 35°21' E 139°49'0 0.1
2018-Jul-16 05:01N 35°21' E 139°49'0 0.4
2018-Jul-16 04:30N 35°20' E 139°49'0 0.0
2018-Jul-16 04:00N 35°20' E 139°49'0 0.4
2018-Jul-16 03:30N 35°20' E 139°49'1 2.7
2018-Jul-16 03:01N 35°22' E 139°49'2 4.1
2018-Jul-16 02:30N 35°23' E 139°51'3 5.2
2018-Jul-16 01:59N 35°21' E 139°54'0 0.0
2018-Jul-16 01:30N 35°21' E 139°54'0 0.0
2018-Jul-16 01:00N 35°21' E 139°54'0 0.0
2018-Jul-16 00:30N 35°21' E 139°54'0 0.0
2018-Jul-15 23:59N 35°21' E 139°54'0 0.0
2018-Jul-15 23:30N 35°21' E 139°54'0 0.0
2018-Jul-15 23:00N 35°21' E 139°54'0 0.0
2018-Jul-15 22:18N 35°21' E 139°54'0 0.0
2018-Jul-15 21:07N 35°21' E 139°54'0 0.0
2018-Jul-15 19:22N 35°21' E 139°54'0 0.0
2018-Jul-15 18:49N 35°21' E 139°54'0 0.0
2018-Jul-15 18:30N 35°21' E 139°54'0 0.0
2018-Jul-15 17:56N 35°21' E 139°54'0 0.0
2018-Jul-15 17:30N 35°21' E 139°54'0 0.0
2018-Jul-15 16:54N 35°21' E 139°54'0 0.0
2018-Jul-15 16:29N 35°21' E 139°54'0 0.0
2018-Jul-15 16:00N 35°21' E 139°54'0 0.0
2018-Jul-15 15:29N 35°21' E 139°54'0 0.0
2018-Jul-15 15:00N 35°21' E 139°54'0 0.0
2018-Jul-15 14:25N 35°21' E 139°54'0 0.0
2018-Jul-15 13:45N 35°21' E 139°54'0 0.0
2018-Jul-15 13:29N 35°21' E 139°54'0 0.0
2018-Jul-15 09:08N 35°21' E 139°54'1 5.7
2018-Jul-15 09:00N 35°22' E 139°53'2 3.7
2018-Jul-15 08:30N 35°21' E 139°51'0 0.9
2018-Jul-15 08:00N 35°22' E 139°51'3 5.3
2018-Jul-15 07:30N 35°24' E 139°49'3 6.0
2018-Jul-15 07:00N 35°21' E 139°51'0 0.3
2018-Jul-15 06:30N 35°21' E 139°51'1 2.5
2018-Jul-15 06:00N 35°22' E 139°50'0 0.0
2018-Jul-15 05:30N 35°22' E 139°50'0 0.0
2018-Jul-15 05:00N 35°22' E 139°50'0 0.0
2018-Jul-15 04:30N 35°22' E 139°50'0 0.0
2018-Jul-15 04:00N 35°22' E 139°50'1 2.4
2018-Jul-15 03:30N 35°21' E 139°49'0 0.1
2018-Jul-15 03:00N 35°21' E 139°49'1 2.7
2018-Jul-15 02:30N 35°22' E 139°50'4 1.0
2018-Jul-14 23:07N 35°22' E 139°54'1 7.8
2018-Jul-14 23:00N 35°22' E 139°53'1 2.0
2018-Jul-14 22:30N 35°22' E 139°52'0 0.5
2018-Jul-14 22:00N 35°22' E 139°52'2 3.7
2018-Jul-14 21:30N 35°23' E 139°50'2 4.8
2018-Jul-14 21:00N 35°25' E 139°48'1 1.1
2018-Jul-14 20:29N 35°26' E 139°49'4 8.6
2018-Jul-14 20:00N 35°22' E 139°52'0 0.6
2018-Jul-14 19:30N 35°22' E 139°52'1 0.1
2018-Jul-14 08:02N 35°22' E 139°54'0 9.2
2018-Jul-14 07:59N 35°22' E 139°53'1 1.1
2018-Jul-14 07:30N 35°22' E 139°53'0 0.4
2018-Jul-14 07:00N 35°22' E 139°53'1 1.3
2018-Jul-14 06:27N 35°22' E 139°53'0 0.0
2018-Jul-14 06:00N 35°22' E 139°53'0 0.0
2018-Jul-14 05:30N 35°22' E 139°53'0 0.0
2018-Jul-14 05:00N 35°22' E 139°53'1 1.9
2018-Jul-14 04:28N 35°22' E 139°52'2 5.4
2018-Jul-14 04:00N 35°21' E 139°49'0 0.0
2018-Jul-14 03:30N 35°21' E 139°49'0 0.2
2018-Jul-14 03:00N 35°21' E 139°49'2 3.2
2018-Jul-14 02:30N 35°22' E 139°48'1 1.4
2018-Jul-14 02:00N 35°23' E 139°48'0 0.1
2018-Jul-14 01:30N 35°23' E 139°48'4 4.6
2018-Jul-14 00:44N 35°22' E 139°53'0 0.0
2018-Jul-14 00:30N 35°22' E 139°53'0 0.0
2018-Jul-14 00:00N 35°22' E 139°53'0 0.6
2018-Jul-13 23:30N 35°22' E 139°53'0 0.6
2018-Jul-13 23:01N 35°22' E 139°53'2 4.8
2018-Jul-13 22:30N 35°23' E 139°50'1 2.9
2018-Jul-13 22:01N 35°24' E 139°49'2 4.4
2018-Jul-13 21:30N 35°23' E 139°51'3 4.4
2018-Jul-13 20:55N 35°22' E 139°54'0 0.0
2018-Jul-13 20:30N 35°22' E 139°54'0 0.0
2018-Jul-13 13:54N 35°22' E 139°54'0 0.0
2018-Jul-13 10:51N 35°22' E 139°54'0 0.1
2018-Jul-13 09:32N 35°22' E 139°54'0 8.7
2018-Jul-13 09:30N 35°22' E 139°54'2 4.0
2018-Jul-13 09:01N 35°21' E 139°51'0 0.7
2018-Jul-13 08:30N 35°21' E 139°51'2 4.9
2018-Jul-13 08:00N 35°23' E 139°49'2 3.6
2018-Jul-13 07:30N 35°25' E 139°50'4 7.0
2018-Jul-13 07:00N 35°22' E 139°53'0 0.2
2018-Jul-13 06:30N 35°22' E 139°53'0 0.0
2018-Jul-13 06:00N 35°22' E 139°53'0 0.0
2018-Jul-13 05:28N 35°22' E 139°53'0 0.1
2018-Jul-13 05:00N 35°22' E 139°53'0 0.1
2018-Jul-13 04:30N 35°22' E 139°53'0 0.1
2018-Jul-13 03:59N 35°22' E 139°53'0 0.0
2018-Jul-13 03:30N 35°22' E 139°53'0 0.0
2018-Jul-13 03:00N 35°22' E 139°53'0 0.1
2018-Jul-13 02:30N 35°22' E 139°53'3 6.4
2018-Jul-13 02:01N 35°21' E 139°49'2 3.7
2018-Jul-13 01:30N 35°21' E 139°51'0 0.0
2018-Jul-13 01:00N 35°21' E 139°51'1 2.2
2018-Jul-13 00:30N 35°22' E 139°50'0 0.0
2018-Jul-13 00:00N 35°22' E 139°50'0 0.0
2018-Jul-12 23:30N 35°22' E 139°50'0 0.0
2018-Jul-12 23:00N 35°22' E 139°50'0 0.0
2018-Jul-12 22:30N 35°22' E 139°50'1 1.6
2018-Jul-12 22:01N 35°22' E 139°51'0 0.5
2018-Jul-12 21:30N 35°22' E 139°51'0 0.1
2018-Jul-12 21:00N 35°22' E 139°51'1 1.4
2018-Jul-12 20:30N 35°22' E 139°50'3 0.2
2018-Jul-12 04:57N 35°22' E 139°54'3 7.3
2018-Jul-12 04:31N 35°22' E 139°50'0 0.7
2018-Jul-12 04:00N 35°22' E 139°50'1 2.2
2018-Jul-12 03:30N 35°21' E 139°49'0 0.0
2018-Jul-12 03:00N 35°21' E 139°49'0 0.1
2018-Jul-12 02:30N 35°21' E 139°49'2 3.0
2018-Jul-12 02:00N 35°22' E 139°48'  

Dump ship's entire track history